createdAt,value
2023-04-08T06:50:24.078Z,17.73
2023-04-08T06:55:25.635Z,17.73
2023-04-08T07:00:27.186Z,17.52
2023-04-08T07:05:32.193Z,18.13
2023-04-08T07:10:34.925Z,18.23
2023-04-08T07:15:36.391Z,17.40
2023-04-08T07:20:37.938Z,18.02
2023-04-08T07:25:39.443Z,19.50
2023-04-08T07:35:45.283Z,19.65
2023-04-08T07:40:46.814Z,21.85
2023-04-08T07:45:48.284Z,20.90
2023-04-08T07:51:08.328Z,22.10
2023-04-08T07:56:12.182Z,20.70
2023-04-08T08:01:17.448Z,21.55
2023-04-08T08:06:18.930Z,20.08
2023-04-08T08:11:20.230Z,21.55
2023-04-08T08:16:21.686Z,20.38
2023-04-08T08:21:23.226Z,19.85
2023-04-08T08:26:24.805Z,20.73
2023-04-08T08:31:26.253Z,19.50
2023-04-08T08:36:27.672Z,20.45
2023-04-08T08:41:33.390Z,21.10
2023-04-08T08:46:35.998Z,21.88
2023-04-08T08:51:37.856Z,21.60
2023-04-08T08:56:39.534Z,22.50
2023-04-08T09:01:45.110Z,23.48
2023-04-08T09:12:33.388Z,22.15
2023-04-08T09:28:41.916Z,24.10
2023-04-08T09:50:20.004Z,29.77
2023-04-08T09:55:22.812Z,30.33
2023-04-08T10:00:31.810Z,34.60
2023-04-08T10:05:36.202Z,31.52
2023-04-08T10:10:45.113Z,29.02
2023-04-08T10:21:05.808Z,26.63
2023-04-08T10:27:24.658Z,24.65
2023-04-08T10:32:14.215Z,25.20
2023-04-08T10:37:16.151Z,25.02
2023-04-08T10:42:25.782Z,28.45
2023-04-08T10:47:35.869Z,24.02
2023-04-08T10:52:46.268Z,26.23
2023-04-08T10:57:47.993Z,25.05
2023-04-08T11:03:01.091Z,23.00
2023-04-08T11:08:09.883Z,22.48
2023-04-08T11:13:23.376Z,27.48
2023-04-08T11:18:26.375Z,27.52
2023-04-08T11:28:43.460Z,25.75
2023-04-08T11:39:22.697Z,24.80
2023-04-08T11:44:34.382Z,23.65
2023-04-08T11:49:48.636Z,24.60
2023-04-08T11:55:22.803Z,26.05
2023-04-08T12:06:23.331Z,24.58
2023-04-08T12:11:33.180Z,22.98
2023-04-08T12:21:56.651Z,25.17
2023-04-08T12:27:00.743Z,23.00
2023-04-08T12:32:14.030Z,24.85
2023-04-08T12:37:55.588Z,25.70
2023-04-08T12:42:54.259Z,21.25
2023-04-08T12:48:05.251Z,24.38
2023-04-08T12:58:32.132Z,23.90
2023-04-08T13:03:33.758Z,25.23
2023-04-08T13:08:39.658Z,21.15
2023-04-08T13:13:42.575Z,22.77
2023-04-08T13:19:13.303Z,17.10
2023-04-08T13:24:22.313Z,13.73
2023-04-08T13:40:21.182Z,10.35
2023-04-08T13:45:22.665Z,8.70
2023-04-08T13:50:30.637Z,4.88
2023-04-08T13:55:36.068Z,4.18
2023-04-08T14:00:42.404Z,4.30
2023-04-08T14:11:24.851Z,5.55
2023-04-08T14:16:29.261Z,5.32
2023-04-08T14:21:37.111Z,5.85
2023-04-08T14:26:41.704Z,4.75
2023-04-08T14:31:43.128Z,5.38
2023-04-08T14:36:44.491Z,5.07
2023-04-08T14:41:45.876Z,5.93
2023-04-08T14:46:47.305Z,5.03
2023-04-08T14:51:49.416Z,6.30
2023-04-08T14:56:51.604Z,5.95
2023-04-08T15:02:02.193Z,6.28
2023-04-08T15:07:03.766Z,6.47
2023-04-08T15:12:05.382Z,7.15
2023-04-08T15:17:06.924Z,7.60
2023-04-08T15:22:08.528Z,8.93
2023-04-08T15:27:11.194Z,10.68
2023-04-08T15:32:12.844Z,11.85
2023-04-08T15:37:14.421Z,13.65
2023-04-08T15:42:18.718Z,13.93
2023-04-08T15:47:20.131Z,14.85
2023-04-08T15:52:21.414Z,16.45
2023-04-08T15:57:22.877Z,13.50
2023-04-08T16:02:25.030Z,10.77
2023-04-08T16:07:26.617Z,10.65
2023-04-08T16:12:28.175Z,10.80
2023-04-08T16:17:29.581Z,12.20
2023-04-08T16:22:30.984Z,10.00
2023-04-08T16:27:34.757Z,12.90
2023-04-08T16:32:36.207Z,15.05
2023-04-08T16:37:37.677Z,13.50
2023-04-08T16:42:39.154Z,12.82
2023-04-08T16:47:40.810Z,12.52
2023-04-08T16:52:42.349Z,13.15
2023-04-08T16:57:43.730Z,12.18
2023-04-08T17:02:45.278Z,11.02
2023-04-08T17:07:46.790Z,12.88
2023-04-08T17:12:48.154Z,12.43
2023-04-08T17:17:49.638Z,14.18
2023-04-08T17:22:51.150Z,13.00
2023-04-08T17:27:52.633Z,12.50
2023-04-08T17:32:54.009Z,12.10
2023-04-08T17:37:55.413Z,13.18
2023-04-08T17:42:56.818Z,11.32
2023-04-08T17:47:58.289Z,12.93
2023-04-08T17:52:59.905Z,14.15
2023-04-08T17:58:01.505Z,13.95
2023-04-08T18:03:03.015Z,14.60
